Time;durP1;ratioP1;P1;durP2;ratioP2;P2;SDS_P1;SDS_P2;PMS_P1;PMS_P2;Temp;Humidity;BMP_temperature;BMP_pressure;BME280_temperature;BME280_humidity;BME280_pressure;Samples;Min_cycle;Max_cycle;Signal;HPM_P1;HPM_P2
2022/10/03 00:00:22;;;;;;;5.93;3.10;;;11.30;99.90;;;;;;8261675;28;20428;-81
2022/10/03 00:04:43;;;;;;;4.20;2.75;;;11.10;99.90;;;;;;8263160;28;20027;-80
2022/10/03 00:08:54;;;;;;;5.80;2.40;;;11.00;99.90;;;;;;8249480;28;20435;-80
2022/10/03 00:13:13;;;;;;;;;;;10.80;99.90;;;;;;8256909;28;20034;-81
2022/10/03 00:17:40;;;;;;;4.22;2.67;;;10.60;99.90;;;;;;8261654;28;20000;-80
2022/10/03 00:21:52;;;;;;;5.82;3.08;;;10.40;99.90;;;;;;8255899;28;20022;-80
2022/10/03 00:26:29;;;;;;;7.38;3.17;;;10.30;99.90;;;;;;8252405;28;20026;-80
2022/10/03 00:30:44;;;;;;;4.35;2.92;;;10.20;99.90;;;;;;8249956;28;20027;-79
2022/10/03 00:35:06;;;;;;;4.68;2.80;;;10.20;99.90;;;;;;8262200;28;20030;-80
2022/10/03 00:39:36;;;;;;;6.28;2.88;;;9.90;99.90;;;;;;8256095;28;20022;-79
2022/10/03 00:44:15;;;;;;;5.68;3.55;;;9.80;99.90;;;;;;8257100;28;20422;-79
2022/10/03 00:48:40;;;;;;;5.97;3.75;;;9.80;99.90;;;;;;8250182;28;20011;-79
2022/10/03 00:52:44;;;;;;;8.82;4.72;;;9.60;99.90;;;;;;8253275;28;20394;-80
2022/10/03 00:57:14;;;;;;;7.13;4.65;;;9.40;99.90;;;;;;8262128;28;20030;-79
2022/10/03 01:01:27;;;;;;;10.80;4.97;;;9.40;99.90;;;;;;8259297;28;20027;-78
2022/10/03 01:05:30;;;;;;;9.25;4.72;;;9.10;99.90;;;;;;8255616;28;20030;-77
2022/10/03 01:10:04;;;;;;;13.27;5.95;;;8.80;99.90;;;;;;8234496;28;20127;-78
2022/10/03 01:14:13;;;;;;;11.23;5.97;;;8.50;99.90;;;;;;8249138;28;20057;-78
2022/10/03 01:18:42;;;;;;;13.13;6.10;;;8.40;99.90;;;;;;8260257;28;20021;-78
2022/10/03 01:22:58;;;;;;;11.52;5.82;;;8.60;99.90;;;;;;8240124;28;20703;-79
2022/10/03 01:27:10;;;;;;;16.15;5.53;;;8.30;99.90;;;;;;8252044;28;20026;-79
2022/10/03 01:31:13;;;;;;;16.85;5.65;;;8.40;99.90;;;;;;8260506;28;20030;-79
2022/10/03 01:35:26;;;;;;;12.98;5.47;;;8.20;99.90;;;;;;8257864;28;20061;-81
2022/10/03 01:39:56;;;;;;;46.22;7.28;;;8.00;99.90;;;;;;8259882;28;20046;-78
2022/10/03 01:44:23;;;;;;;23.48;6.53;;;8.00;99.90;;;;;;8243253;28;20031;-78
2022/10/03 01:48:48;;;;;;;19.23;6.03;;;8.00;99.90;;;;;;8245595;28;20065;-78
2022/10/03 01:52:57;;;;;;;25.25;6.97;;;7.90;99.90;;;;;;8247873;28;20045;-78
2022/10/03 01:57:14;;;;;;;37.70;7.78;;;7.90;99.90;;;;;;8255481;28;20040;-78
2022/10/03 02:01:43;;;;;;;103.53;9.02;;;7.70;99.90;;;;;;8250873;28;20022;-78
2022/10/03 02:06:23;;;;;;;54.92;6.60;;;7.60;99.90;;;;;;8241534;28;20027;-80
2022/10/03 02:10:41;;;;;;;66.00;7.38;;;7.50;99.90;;;;;;8210563;28;20034;-78
2022/10/03 02:14:59;;;;;;;42.70;7.30;;;7.50;99.90;;;;;;8254351;28;20105;-78
2022/10/03 02:19:25;;;;;;;40.75;7.72;;;7.50;99.90;;;;;;8241020;28;20030;-78
2022/10/03 02:23:39;;;;;;;32.42;6.68;;;7.60;99.90;;;;;;8240372;28;20031;-78
2022/10/03 02:28:13;;;;;;;16.55;6.00;;;7.50;99.90;;;;;;8250745;28;20490;-79
2022/10/03 02:32:26;;;;;;;27.73;6.07;;;7.60;99.90;;;;;;8259598;28;20041;-79
2022/10/03 02:36:42;;;;;;;14.13;5.13;;;7.30;99.90;;;;;;8251098;28;20078;-78
2022/10/03 02:41:12;;;;;;;12.23;5.32;;;7.10;99.90;;;;;;8252105;28;20026;-78
2022/10/03 02:45:13;;;;;;;16.35;5.97;;;6.90;99.90;;;;;;8235590;28;20031;-78
2022/10/03 02:49:41;;;;;;;14.23;5.53;;;6.60;99.90;;;;;;8246491;28;20058;-78
2022/10/03 02:54:24;;;;;;;29.15;5.43;;;6.60;99.90;;;;;;8248425;28;20014;-79
2022/10/03 02:58:42;;;;;;;42.30;7.20;;;6.50;99.90;;;;;;8236410;28;20074;-78
2022/10/03 03:03:20;;;;;;;25.05;7.93;;;6.50;99.90;;;;;;8250875;28;20117;-78
2022/10/03 03:07:37;;;;;;;46.03;7.50;;;6.40;99.90;;;;;;8251006;28;20026;-77
2022/10/03 03:12:02;;;;;;;57.15;6.80;;;6.40;99.90;;;;;;8251129;28;20113;-79
2022/10/03 03:16:32;;;;;;;117.88;8.10;;;6.40;99.90;;;;;;8258397;28;20509;-79
2022/10/03 03:20:44;;;;;;;145.93;7.45;;;6.40;99.90;;;;;;8244079;28;20507;-78
2022/10/03 03:25:30;;;;;;;235.25;10.43;;;6.20;99.90;;;;;;8264362;28;20102;-78
2022/10/03 03:29:49;;;;;;;72.63;5.80;;;6.20;99.90;;;;;;8247102;28;20057;-79
2022/10/03 03:34:03;;;;;;;63.58;7.43;;;6.10;99.90;;;;;;8256564;28;20065;-79
2022/10/03 03:38:42;;;;;;;74.90;6.55;;;5.90;99.90;;;;;;8265191;28;20022;-79
2022/10/03 03:42:51;;;;;;;38.50;5.03;;;5.80;99.90;;;;;;8252111;28;20410;-79
2022/10/03 03:47:19;;;;;;;118.03;8.27;;;5.70;99.90;;;;;;8262496;28;20022;-78
2022/10/03 03:51:22;;;;;;;46.03;7.07;;;5.70;99.90;;;;;;8262838;28;20285;-78
2022/10/03 03:55:47;;;;;;;101.40;8.80;;;5.80;99.90;;;;;;8261868;28;20029;-79
2022/10/03 04:00:17;;;;;;;136.10;10.18;;;5.90;99.90;;;;;;8248813;28;20434;-79
2022/10/03 04:04:28;;;;;;;85.03;6.88;;;6.00;99.90;;;;;;8254384;28;20114;-79
2022/10/03 04:08:58;;;;;;;96.35;7.30;;;6.10;99.90;;;;;;8255480;28;20499;-78
2022/10/03 04:13:23;;;;;;;138.80;7.15;;;6.00;99.90;;;;;;8250869;28;20515;-79
2022/10/03 04:22:03;;;;;;;64.20;5.38;;;6.00;99.90;;;;;;8260875;28;20037;-79
2022/10/03 04:26:36;;;;;;;46.75;4.55;;;6.20;99.90;;;;;;8257527;28;20046;-80
2022/10/03 04:31:04;;;;;;;19.98;3.45;;;6.10;99.90;;;;;;8244101;28;20033;-80
2022/10/03 04:35:45;;;;;;;25.73;3.47;;;6.40;99.90;;;;;;8255391;28;20026;-78
2022/10/03 04:40:10;;;;;;;52.10;4.17;;;6.60;99.90;;;;;;8256439;28;20037;-78
2022/10/03 04:44:37;;;;;;;85.82;4.60;;;6.40;99.90;;;;;;8253254;28;20026;-79
2022/10/03 04:48:45;;;;;;;134.80;7.05;;;6.20;99.90;;;;;;8255205;28;20026;-79
2022/10/03 04:52:55;;;;;;;60.25;4.65;;;6.00;99.90;;;;;;8255108;28;20014;-79
2022/10/03 04:56:59;;;;;;;;;;;5.80;99.90;;;;;;8247427;28;20023;-78
2022/10/03 05:01:13;;;;;;;72.63;6.10;;;5.80;99.90;;;;;;8255854;28;19917;-79
2022/10/03 05:05:30;;;;;;;96.45;5.80;;;5.80;99.90;;;;;;8256041;28;20027;-79
2022/10/03 05:09:46;;;;;;;84.30;5.82;;;5.80;99.90;;;;;;8257875;28;20041;-79
2022/10/03 05:14:12;;;;;;;46.95;5.10;;;5.80;99.90;;;;;;8257541;28;20023;-78
2022/10/03 05:18:16;;;;;;;110.35;5.78;;;5.90;99.90;;;;;;8253208;28;20038;-79
2022/10/03 05:22:25;;;;;;;57.65;3.83;;;5.90;99.90;;;;;;8255814;28;20183;-80
2022/10/03 05:26:49;;;;;;;34.22;4.25;;;5.60;99.90;;;;;;8260445;28;20094;-79
2022/10/03 05:31:14;;;;;;;60.60;4.63;;;5.60;99.90;;;;;;8257521;28;20631;-80
2022/10/03 05:35:30;;;;;;;76.22;4.72;;;5.70;99.90;;;;;;8259134;28;20033;-80
2022/10/03 05:39:49;;;;;;;18.90;3.42;;;5.40;99.90;;;;;;8241569;28;20034;-79
2022/10/03 05:43:57;;;;;;;49.72;4.95;;;5.40;99.90;;;;;;8253822;28;20081;-79
2022/10/03 05:48:00;;;;;;;24.48;3.83;;;5.40;99.90;;;;;;8260824;28;20022;-79
2022/10/03 05:52:33;;;;;;;120.45;5.43;;;5.40;99.90;;;;;;8253261;28;20022;-79
2022/10/03 05:56:56;;;;;;;39.25;4.55;;;5.50;99.90;;;;;;8247607;28;20038;-80
2022/10/03 06:01:28;;;;;;;22.02;3.80;;;5.20;99.90;;;;;;8257709;28;20154;-80
2022/10/03 06:06:13;;;;;;;34.33;5.47;;;5.40;99.90;;;;;;8251004;28;20442;-78
2022/10/03 06:10:58;;;;;;;37.13;5.35;;;5.40;99.90;;;;;;8224296;28;20035;-80
2022/10/03 06:15:33;;;;;;;9.93;4.60;;;5.60;99.90;;;;;;8240920;28;20121;-78
2022/10/03 06:19:53;;;;;;;13.05;5.20;;;5.70;99.90;;;;;;8235609;28;20069;-79
2022/10/03 06:24:24;;;;;;;20.17;8.02;;;6.40;99.90;;;;;;8254019;28;20014;-80
2022/10/03 06:28:27;;;;;;;25.87;14.20;;;6.60;99.90;;;;;;8258935;28;20026;-78
2022/10/03 06:33:04;;;;;;;26.27;13.07;;;6.70;99.90;;;;;;8250890;28;20022;-77
2022/10/03 06:37:37;;;;;;;15.68;8.75;;;6.60;99.90;;;;;;8257779;28;20054;-78
2022/10/03 06:42:15;;;;;;;12.82;8.30;;;6.40;99.90;;;;;;8268834;28;20429;-79
2022/10/03 06:46:40;;;;;;;14.15;7.85;;;6.50;99.90;;;;;;8257360;28;20030;-78
2022/10/03 06:50:52;;;;;;;17.35;8.57;;;6.60;99.90;;;;;;8253068;28;20022;-77
2022/10/03 06:55:30;;;;;;;23.48;9.02;;;6.60;99.90;;;;;;8253729;28;20719;-79
2022/10/03 06:59:34;;;;;;;25.50;10.52;;;6.70;99.90;;;;;;8258724;28;20072;-79
2022/10/03 07:04:13;;;;;;;27.20;10.95;;;6.90;99.90;;;;;;8264361;28;20023;-79
2022/10/03 07:08:57;;;;;;;29.50;10.93;;;7.20;99.90;;;;;;8263715;28;20391;-78
2022/10/03 07:13:38;;;;;;;31.70;12.30;;;7.50;99.90;;;;;;8261929;28;20550;-78
2022/10/03 07:17:57;;;;;;;24.05;10.32;;;7.70;99.90;;;;;;8208462;28;20047;-78
2022/10/03 07:22:33;;;;;;;25.42;10.95;;;7.80;99.90;;;;;;8254190;28;20030;-78
2022/10/03 07:27:08;;;;;;;48.67;13.10;;;7.80;99.90;;;;;;8254709;28;20085;-78
2022/10/03 07:31:38;;;;;;;25.65;9.77;;;8.00;99.90;;;;;;8256955;28;20023;-78
2022/10/03 07:40:25;;;;;;;26.43;12.23;;;8.60;99.90;;;;;;8258773;28;20453;-78
2022/10/03 07:44:46;;;;;;;44.47;12.10;;;8.60;99.90;;;;;;8261525;28;20483;-79
2022/10/03 07:49:05;;;;;;;32.10;13.85;;;8.80;99.90;;;;;;8239203;28;20018;-78
2022/10/03 07:53:36;;;;;;;23.63;12.65;;;9.10;99.90;;;;;;8262079;28;20038;-77
2022/10/03 07:57:57;;;;;;;28.73;14.83;;;9.50;99.90;;;;;;8241008;28;20027;-79
2022/10/03 08:02:16;;;;;;;25.67;13.55;;;9.50;99.90;;;;;;8225693;28;20084;-77
2022/10/03 08:06:26;;;;;;;36.90;15.02;;;9.80;99.90;;;;;;8248388;28;20673;-78
2022/10/03 08:11:02;;;;;;;31.65;15.98;;;9.80;99.90;;;;;;8265481;28;20394;-78
2022/10/03 08:15:20;;;;;;;25.52;13.18;;;10.00;99.90;;;;;;8250991;28;20070;-79
2022/10/03 08:19:48;;;;;;;24.00;13.63;;;10.10;99.90;;;;;;8250753;28;20130;-79
2022/10/03 08:24:29;;;;;;;29.40;14.85;;;10.00;99.90;;;;;;8250861;28;20041;-80
2022/10/03 08:28:56;;;;;;;26.88;13.45;;;10.20;99.90;;;;;;8256672;28;20030;-78
2022/10/03 08:33:22;;;;;;;16.55;10.63;;;10.70;99.90;;;;;;8255585;28;20039;-78
2022/10/03 08:37:38;;;;;;;15.77;8.90;;;11.20;99.90;;;;;;8251541;28;20564;-78
2022/10/03 08:42:06;;;;;;;16.77;10.13;;;11.40;99.90;;;;;;8257974;28;20034;-79
2022/10/03 08:46:14;;;;;;;15.60;9.40;;;11.30;99.90;;;;;;8257315;28;20109;-79
2022/10/03 08:50:33;;;;;;;16.90;8.13;;;11.80;99.90;;;;;;8259153;28;20216;-79
2022/10/03 08:55:07;;;;;;;14.38;8.68;;;12.30;99.90;;;;;;8259734;28;20022;-80
2022/10/03 08:59:38;;;;;;;13.48;8.10;;;12.40;99.90;;;;;;8262280;28;20054;-80
2022/10/03 09:03:58;;;;;;;11.73;6.68;;;12.60;99.90;;;;;;8262918;28;20031;-80
2022/10/03 09:08:13;;;;;;;13.77;7.57;;;13.30;99.90;;;;;;8254314;28;20057;-83
2022/10/03 09:12:35;;;;;;;14.07;7.97;;;13.50;99.90;;;;;;8264738;28;20032;-82
2022/10/03 09:16:57;;;;;;;7.68;6.05;;;13.60;99.90;;;;;;8256779;28;20777;-82
2022/10/03 09:21:25;;;;;;;11.13;6.75;;;13.10;99.90;;;;;;8263080;28;20097;-82
2022/10/03 09:25:42;;;;;;;10.93;6.45;;;12.50;99.90;;;;;;8263246;28;20027;-83
2022/10/03 09:30:09;;;;;;;8.95;6.18;;;12.20;99.90;;;;;;8259393;28;20053;-83
2022/10/03 09:34:37;;;;;;;14.82;8.23;;;12.00;99.90;;;;;;8262728;28;20114;-83
2022/10/03 09:39:02;;;;;;;11.77;7.97;;;12.00;99.90;;;;;;8262414;28;20105;-84
2022/10/03 09:43:27;;;;;;;10.43;7.18;;;12.20;99.90;;;;;;8263692;28;20034;-84
2022/10/03 09:47:50;;;;;;;7.28;5.70;;;12.70;99.90;;;;;;8262445;28;20022;-84
2022/10/03 09:52:12;;;;;;;9.02;5.50;;;14.10;99.90;;;;;;8258551;28;20057;-83
2022/10/03 09:56:25;;;;;;;10.65;5.95;;;15.20;99.90;;;;;;8262290;28;20026;-85
2022/10/03 10:00:46;;;;;;;6.47;5.05;;;16.00;99.90;;;;;;8262245;28;20022;-85
2022/10/03 10:04:59;;;;;;;6.40;4.00;;;16.70;99.90;;;;;;8257892;28;20034;-84
2022/10/03 10:09:20;;;;;;;11.00;5.75;;;16.20;99.90;;;;;;8252868;28;20633;-83
2022/10/03 10:13:52;;;;;;;7.57;4.82;;;15.00;99.90;;;;;;8255942;28;20034;-83
2022/10/03 10:17:58;;;;;;;9.93;5.15;;;14.50;99.90;;;;;;8257403;28;20032;-83
2022/10/03 10:22:17;;;;;;;8.27;5.03;;;14.10;99.90;;;;;;8262869;28;20545;-83
2022/10/03 10:26:36;;;;;;;7.13;4.45;;;13.90;99.90;;;;;;8260706;28;20109;-83
2022/10/03 10:31:24;;;;;;;8.80;5.43;;;13.80;99.90;;;;;;8262012;28;20026;-83
2022/10/03 10:35:59;;;;;;;6.32;4.97;;;13.90;99.90;;;;;;8263137;28;20037;-83
2022/10/03 10:40:18;;;;;;;8.75;4.15;;;15.40;99.90;;;;;;8268554;28;20073;-83
2022/10/03 10:44:40;;;;;;;6.97;4.28;;;17.80;99.90;;;;;;8261354;28;20026;-83
2022/10/03 10:49:07;;;;;;;4.97;2.60;;;19.30;99.90;;;;;;8262003;28;20781;-83
2022/10/03 10:53:46;;;;;;;5.15;3.42;;;20.60;99.90;;;;;;8267527;28;20391;-84
2022/10/03 10:58:09;;;;;;;4.95;3.00;;;22.00;99.90;;;;;;8264379;28;20019;-84
2022/10/03 11:02:28;;;;;;;6.55;3.38;;;21.70;99.90;;;;;;8256020;28;20483;-83
2022/10/03 11:06:44;;;;;;;6.40;3.70;;;18.90;99.90;;;;;;8265873;28;20022;-82
2022/10/03 11:11:07;;;;;;;8.80;3.83;;;16.40;99.90;;;;;;8267214;28;20060;-82
2022/10/03 11:15:51;;;;;;;8.18;4.07;;;15.20;99.90;;;;;;8242249;28;20050;-81
2022/10/03 11:20:19;;;;;;;9.20;4.60;;;14.60;99.90;;;;;;8260001;28;20034;-82
2022/10/03 11:24:32;;;;;;;10.93;3.50;;;14.40;99.90;;;;;;8264008;28;20507;-81
2022/10/03 11:28:54;;;;;;;5.68;2.90;;;17.30;99.90;;;;;;8260016;28;20081;-81
2022/10/03 11:33:29;;;;;;;5.80;3.10;;;20.60;99.90;;;;;;8264316;28;20410;-82
2022/10/03 11:37:45;;;;;;;6.32;3.00;;;22.40;99.90;;;;;;8257885;28;20038;-81
2022/10/03 11:42:04;;;;;;;5.80;2.40;;;23.20;99.90;;;;;;8264038;28;20049;-82
2022/10/03 11:46:16;;;;;;;7.68;2.65;;;21.80;99.90;;;;;;8261505;28;20030;-81
2022/10/03 11:50:29;;;;;;;4.68;2.40;;;20.30;99.90;;;;;;8266166;28;20121;-82
2022/10/03 11:54:38;;;;;;;4.35;2.47;;;21.70;99.90;;;;;;8260989;28;20031;-81
2022/10/03 11:59:28;;;;;;;5.57;2.30;;;22.80;99.90;;;;;;8263243;28;20061;-82
2022/10/03 12:03:35;;;;;;;5.00;2.80;;;21.80;99.90;;;;;;8233309;28;20050;-82
2022/10/03 12:12:27;;;;;;;4.18;2.97;;;16.80;99.90;;;;;;8256325;28;20045;-81
2022/10/03 12:16:37;;;;;;;6.60;3.00;;;15.60;99.90;;;;;;8265906;28;20034;-82
2022/10/03 12:20:52;;;;;;;7.88;2.97;;;15.20;99.90;;;;;;8255231;28;20459;-81
2022/10/03 12:25:15;;;;;;;8.60;2.97;;;15.00;99.90;;;;;;8256550;28;20061;-80
2022/10/03 12:29:22;;;;;;;6.00;3.00;;;15.20;99.90;;;;;;8265448;28;20023;-81
2022/10/03 12:33:43;;;;;;;6.30;2.70;;;15.20;99.90;;;;;;8254164;28;20109;-81
2022/10/03 12:37:56;;;;;;;4.18;2.47;;;16.70;99.90;;;;;;8260874;28;20060;-81
2022/10/03 12:42:32;;;;;;;5.25;2.38;;;20.30;99.90;;;;;;8260412;28;20045;-81
2022/10/03 12:46:44;;;;;;;6.50;2.22;;;23.80;99.20;;;;;;8254572;28;20022;-82
2022/10/03 12:51:00;;;;;;;4.35;2.10;;;26.40;84.10;;;;;;8255528;28;20030;-81
2022/10/03 12:55:13;;;;;;;6.28;2.40;;;28.00;78.60;;;;;;8253999;28;20028;-82
2022/10/03 12:59:45;;;;;;;5.95;2.05;;;28.60;73.10;;;;;;8256110;28;20030;-81
2022/10/03 13:03:59;;;;;;;2.72;1.80;;;28.60;62.40;;;;;;8252529;28;20093;-81
2022/10/03 13:08:42;;;;;;;4.57;2.05;;;24.80;75.40;;;;;;8245462;28;20101;-81
2022/10/03 13:13:20;;;;;;;5.25;2.65;;;21.10;90.10;;;;;;8243470;28;20491;-81
2022/10/03 13:17:35;;;;;;;4.15;2.70;;;18.40;99.90;;;;;;8262177;28;20038;-80
2022/10/03 13:21:54;;;;;;;3.92;2.70;;;17.00;99.90;;;;;;8257528;28;20108;-81
2022/10/03 13:26:19;;;;;;;7.88;2.92;;;18.20;99.90;;;;;;8255096;28;20025;-80
2022/10/03 13:30:27;;;;;;;8.38;3.53;;;18.30;99.90;;;;;;8258508;28;20031;-80
2022/10/03 13:34:33;;;;;;;7.75;3.33;;;17.70;99.90;;;;;;8257252;28;20030;-79
2022/10/03 13:38:36;;;;;;;6.22;3.13;;;18.40;99.90;;;;;;8247163;28;20026;-80
2022/10/03 13:42:45;;;;;;;5.00;2.90;;;20.70;99.90;;;;;;8259995;28;20504;-80
2022/10/03 13:46:54;;;;;;;6.38;2.67;;;21.40;99.90;;;;;;8247853;28;20019;-81
2022/10/03 13:51:04;;;;;;;5.22;2.67;;;22.60;97.30;;;;;;8258213;28;20101;-80
2022/10/03 13:55:18;;;;;;;4.07;2.00;;;23.80;95.40;;;;;;8255304;28;20060;-80
2022/10/03 13:59:41;;;;;;;4.47;2.60;;;24.20;92.70;;;;;;8259469;28;20034;-80
2022/10/03 14:04:05;;;;;;;4.57;2.50;;;24.90;87.80;;;;;;8254487;28;20019;-80
2022/10/03 14:08:29;;;;;;;4.90;2.60;;;23.80;90.20;;;;;;8258413;28;20015;-80
2022/10/03 14:13:05;;;;;;;3.88;2.70;;;21.10;95.40;;;;;;8236627;28;20034;-79
2022/10/03 14:17:33;;;;;;;4.95;2.85;;;18.30;99.90;;;;;;8263507;28;20019;-80
2022/10/03 14:21:52;;;;;;;4.70;3.05;;;16.90;99.90;;;;;;8253678;28;20121;-79
2022/10/03 14:26:03;;;;;;;7.35;3.10;;;16.20;99.90;;;;;;8256153;28;20402;-80
2022/10/03 14:30:08;;;;;;;5.07;2.80;;;15.70;99.90;;;;;;8261248;28;20037;-80
2022/10/03 14:34:24;;;;;;;5.15;2.92;;;15.40;99.90;;;;;;8263404;28;20030;-79
2022/10/03 14:39:02;;;;;;;6.32;2.40;;;15.70;99.90;;;;;;8250280;28;20050;-79
2022/10/03 14:43:31;;;;;;;5.70;2.92;;;16.90;99.90;;;;;;8256555;28;20490;-80
2022/10/03 14:47:39;;;;;;;7.50;2.60;;;17.40;99.90;;;;;;8250534;28;20034;-79
2022/10/03 14:51:53;;;;;;;4.32;2.30;;;17.20;99.90;;;;;;8250532;28;20495;-80
2022/10/03 14:56:07;;;;;;;3.58;2.35;;;17.20;99.90;;;;;;8253714;28;20542;-80
2022/10/03 15:00:21;;;;;;;5.05;2.22;;;17.70;99.90;;;;;;8247439;28;20038;-80
2022/10/03 15:04:33;;;;;;;5.82;2.65;;;18.20;99.90;;;;;;8252855;28;20438;-79
2022/10/03 15:08:38;;;;;;;4.15;2.42;;;17.90;99.90;;;;;;8250450;28;20454;-80
2022/10/03 15:12:43;;;;;;;2.33;2.00;;;17.30;99.90;;;;;;8254389;28;20027;-79
2022/10/03 15:16:50;;;;;;;5.32;2.80;;;16.40;99.90;;;;;;8248465;28;20035;-81
2022/10/03 15:20:53;;;;;;;4.25;3.05;;;15.70;99.90;;;;;;8270400;28;20041;-80
2022/10/03 15:25:05;;;;;;;4.68;2.50;;;15.50;99.90;;;;;;8262597;28;20022;-80
2022/10/03 15:29:13;;;;;;;3.72;2.60;;;15.20;99.90;;;;;;8258193;28;20026;-80
2022/10/03 15:33:36;;;;;;;3.67;2.80;;;15.10;99.90;;;;;;8275099;28;20046;-81
2022/10/03 15:37:41;;;;;;;5.40;3.17;;;15.10;99.90;;;;;;8261856;28;20023;-79
2022/10/03 15:41:54;;;;;;;5.57;2.45;;;15.20;99.90;;;;;;8263588;28;20568;-80
2022/10/03 15:45:56;;;;;;;7.28;2.88;;;15.00;99.90;;;;;;8263099;28;20045;-80
2022/10/03 15:50:06;;;;;;;5.18;2.67;;;15.00;99.90;;;;;;8256291;28;20439;-80
2022/10/03 15:54:12;;;;;;;7.15;3.17;;;15.00;99.90;;;;;;8254482;28;20592;-81
2022/10/03 15:58:18;;;;;;;4.00;2.65;;;14.70;99.90;;;;;;8254070;28;20027;-81
2022/10/03 16:02:25;;;;;;;4.72;3.00;;;14.60;99.90;;;;;;8245779;28;20026;-80
2022/10/03 16:06:38;;;;;;;5.05;2.72;;;14.40;99.90;;;;;;8251121;28;20340;-80
2022/10/03 16:10:44;;;;;;;4.70;3.03;;;14.10;99.90;;;;;;8258119;28;20613;-80
2022/10/03 16:15:08;;;;;;;6.13;3.17;;;13.90;99.90;;;;;;8263270;28;20097;-80
2022/10/03 16:19:40;;;;;;;7.80;3.20;;;13.70;99.90;;;;;;8255330;28;20419;-81
2022/10/03 16:23:44;;;;;;;3.88;2.92;;;13.40;99.90;;;;;;8248530;28;20030;-81
2022/10/03 16:28:00;;;;;;;9.60;3.00;;;13.20;99.90;;;;;;8258071;28;20018;-80
2022/10/03 16:32:13;;;;;;;6.72;3.30;;;13.00;99.90;;;;;;8246266;28;20042;-79
2022/10/03 16:36:19;;;;;;;9.30;3.47;;;12.80;99.90;;;;;;8247734;28;20073;-81
2022/10/03 16:40:21;;;;;;;5.28;3.33;;;12.40;99.90;;;;;;8253698;28;20027;-81
2022/10/03 16:44:42;;;;;;;5.80;3.13;;;12.00;99.90;;;;;;8242141;28;20027;-82
2022/10/03 16:53:10;;;;;;;5.93;3.27;;;11.80;99.90;;;;;;8249641;28;20489;-81
2022/10/03 16:57:20;;;;;;;7.13;3.67;;;11.70;99.90;;;;;;8251142;28;20023;-79
2022/10/03 17:01:29;;;;;;;7.43;2.85;;;11.40;99.90;;;;;;8249708;28;20041;-79
2022/10/03 17:05:39;;;;;;;5.75;3.13;;;11.10;99.90;;;;;;8256969;28;20026;-84
2022/10/03 17:09:52;;;;;;;7.50;3.60;;;10.90;99.90;;;;;;8261330;28;20030;-84
2022/10/03 17:13:55;;;;;;;7.43;3.70;;;10.60;99.90;;;;;;8262335;28;20026;-84
2022/10/03 17:18:05;;;;;;;8.88;3.63;;;10.10;99.90;;;;;;8255087;28;20414;-84
2022/10/03 17:22:15;;;;;;;;;;;9.80;99.90;;;;;;8259291;28;20511;-79
2022/10/03 17:26:38;;;;;;;10.82;3.72;;;9.60;99.90;;;;;;8246167;28;20393;-80
2022/10/03 17:30:46;;;;;;;6.30;3.30;;;9.50;99.90;;;;;;8251902;28;20037;-80
2022/10/03 17:35:05;;;;;;;5.70;4.03;;;9.40;99.90;;;;;;8252642;28;20034;-80
2022/10/03 17:39:24;;;;;;;7.75;4.10;;;9.20;99.90;;;;;;8249198;28;20023;-78
2022/10/03 17:43:26;;;;;;;9.57;4.35;;;9.00;99.90;;;;;;8253052;28;20030;-79
2022/10/03 17:47:47;;;;;;;9.85;4.45;;;9.00;99.90;;;;;;8248875;28;20054;-79
2022/10/03 17:51:51;;;;;;;14.00;4.78;;;8.90;99.90;;;;;;8251297;28;20041;-80
2022/10/03 17:55:57;;;;;;;12.25;4.47;;;9.00;99.90;;;;;;8246420;28;20120;-79
2022/10/03 18:00:06;;;;;;;11.10;4.45;;;8.90;99.90;;;;;;8252254;28;20029;-79
2022/10/03 18:04:18;;;;;;;8.25;4.90;;;8.90;99.90;;;;;;8258490;28;20095;-80
2022/10/03 18:08:27;;;;;;;8.60;4.20;;;8.60;99.90;;;;;;8259418;28;20418;-80
2022/10/03 18:12:41;;;;;;;9.45;4.68;;;8.40;99.90;;;;;;8256404;28;20026;-78
2022/10/03 18:16:46;;;;;;;11.00;5.03;;;8.20;99.90;;;;;;8255327;28;20033;-79
2022/10/03 18:20:57;;;;;;;12.30;4.78;;;8.30;99.90;;;;;;8261139;28;20029;-78
2022/10/03 18:25:56;;;;;;;9.23;4.70;;;8.30;99.90;;;;;;8260542;28;20014;-80
2022/10/03 18:29:45;;;;;;;12.63;5.15;;;8.20;99.90;;;;;;8260238;28;20506;-79
2022/10/03 18:33:58;;;;;;;14.43;5.43;;;7.90;99.90;;;;;;8248984;28;20048;-79
2022/10/03 18:38:13;;;;;;;10.45;5.82;;;7.80;99.90;;;;;;8257959;28;20018;-79
2022/10/03 18:42:14;;;;;;;11.38;6.40;;;7.80;99.90;;;;;;8256945;28;20029;-79
2022/10/03 18:46:24;;;;;;;10.40;5.65;;;7.70;99.90;;;;;;8251675;28;20522;-79
2022/10/03 18:50:28;;;;;;;;;;;7.70;99.90;;;;;;8253452;28;20030;-80
2022/10/03 18:54:38;;;;;;;10.10;5.32;;;7.70;99.90;;;;;;8256625;28;19910;-78
2022/10/03 18:58:45;;;;;;;10.93;5.57;;;7.70;99.90;;;;;;8251064;28;20042;-78
2022/10/03 19:02:50;;;;;;;7.05;4.60;;;7.60;99.90;;;;;;8258529;28;20285;-79
2022/10/03 19:06:53;;;;;;;10.10;5.00;;;7.30;99.90;;;;;;8258433;28;20032;-79
2022/10/03 19:11:21;;;;;;;11.27;5.72;;;7.20;99.90;;;;;;8265332;28;20030;-78
2022/10/03 19:15:41;;;;;;;10.07;5.47;;;7.10;99.90;;;;;;8262941;28;20088;-79
2022/10/03 19:19:59;;;;;;;10.75;5.55;;;7.10;99.90;;;;;;8256071;28;20050;-79
2022/10/03 19:24:10;;;;;;;9.20;5.25;;;7.30;99.90;;;;;;8256336;28;20414;-80
2022/10/03 19:28:45;;;;;;;13.40;5.57;;;7.10;99.90;;;;;;8261887;28;20022;-79
2022/10/03 19:33:08;;;;;;;10.60;5.57;;;7.10;99.90;;;;;;8266978;28;20047;-78
2022/10/03 19:37:29;;;;;;;11.77;5.20;;;7.10;99.90;;;;;;8260235;28;20081;-80
2022/10/03 19:41:45;;;;;;;18.60;6.03;;;7.00;99.90;;;;;;8258520;28;20429;-78
2022/10/03 19:46:01;;;;;;;10.02;4.75;;;7.00;99.90;;;;;;8264011;28;20029;-79
2022/10/03 19:50:18;;;;;;;10.63;4.97;;;6.90;99.90;;;;;;8261627;28;20022;-79
2022/10/03 19:54:32;;;;;;;13.23;5.88;;;6.70;99.90;;;;;;8264759;28;20501;-80
2022/10/03 19:58:33;;;;;;;11.95;5.50;;;6.70;99.90;;;;;;8257220;28;20037;-78
2022/10/03 20:02:34;;;;;;;15.00;5.57;;;6.70;99.90;;;;;;8263395;28;20034;-78
2022/10/03 20:06:39;;;;;;;10.73;5.28;;;6.60;99.90;;;;;;8262113;28;20026;-79
2022/10/03 20:10:48;;;;;;;9.75;5.28;;;6.40;99.90;;;;;;8263465;28;20025;-78
2022/10/03 20:14:51;;;;;;;12.50;6.55;;;6.30;99.90;;;;;;8264067;28;20402;-79
2022/10/03 20:18:57;;;;;;;16.45;8.02;;;6.30;99.90;;;;;;8262913;28;20033;-79
2022/10/03 20:23:03;;;;;;;15.02;8.00;;;6.40;99.90;;;;;;8263978;28;20038;-79
2022/10/03 20:27:27;;;;;;;12.70;7.25;;;6.40;99.90;;;;;;8263118;28;20018;-78
2022/10/03 20:31:29;;;;;;;16.52;8.20;;;6.30;99.90;;;;;;8262860;28;20037;-78
2022/10/03 20:35:56;;;;;;;17.38;8.50;;;6.30;99.90;;;;;;8261070;28;20030;-78
2022/10/03 20:40:09;;;;;;;17.17;8.52;;;6.10;99.90;;;;;;8259051;28;20380;-79
2022/10/03 20:44:34;;;;;;;22.67;12.05;;;6.00;99.90;;;;;;8262473;28;20133;-78
2022/10/03 20:48:41;;;;;;;16.70;8.80;;;5.90;99.90;;;;;;8261749;28;20030;-79
2022/10/03 20:52:49;;;;;;;12.88;7.90;;;5.70;99.90;;;;;;8260305;28;20022;-79
2022/10/03 20:57:07;;;;;;;14.65;7.82;;;5.60;99.90;;;;;;8259305;28;20190;-79
2022/10/03 21:01:14;;;;;;;14.68;7.40;;;5.60;99.90;;;;;;8261960;28;20085;-78
2022/10/03 21:05:35;;;;;;;14.32;7.10;;;5.50;99.90;;;;;;8262856;28;20434;-79
2022/10/03 21:09:47;;;;;;;13.75;8.00;;;5.30;99.90;;;;;;8263150;28;20439;-78
2022/10/03 21:14:23;;;;;;;15.68;8.82;;;5.20;99.90;;;;;;8262144;28;20106;-78
2022/10/03 21:18:27;;;;;;;16.48;9.57;;;5.20;99.90;;;;;;8251300;28;20038;-78
2022/10/03 21:22:29;;;;;;;19.83;10.18;;;5.20;99.90;;;;;;8261516;28;20126;-78
2022/10/03 21:26:40;;;;;;;13.32;9.05;;;5.20;99.90;;;;;;8260592;28;20029;-78
2022/10/03 21:31:11;;;;;;;39.75;10.50;;;5.20;99.90;;;;;;8262692;28;20030;-78
2022/10/03 21:35:31;;;;;;;52.35;9.43;;;5.20;99.90;;;;;;8252457;28;20041;-78
2022/10/03 21:40:00;;;;;;;26.58;9.13;;;5.20;99.90;;;;;;8257889;28;20057;-78
2022/10/03 21:44:09;;;;;;;29.25;8.23;;;5.30;99.90;;;;;;8243868;28;20554;-79
2022/10/03 21:48:42;;;;;;;39.33;9.40;;;5.40;99.90;;;;;;8260754;28;20092;-78
2022/10/03 21:52:52;;;;;;;18.40;6.40;;;5.60;99.90;;;;;;8255071;28;20514;-79
2022/10/03 21:57:08;;;;;;;17.20;6.40;;;5.50;99.90;;;;;;8261412;28;20033;-78
2022/10/03 22:01:35;;;;;;;19.13;6.50;;;5.30;99.90;;;;;;8259990;28;20025;-79
2022/10/03 22:05:54;;;;;;;24.15;6.45;;;5.20;99.90;;;;;;8255393;28;20487;-78
2022/10/03 22:09:55;;;;;;;15.27;6.13;;;5.10;99.90;;;;;;8259782;28;20038;-79
2022/10/03 22:14:33;;;;;;;15.10;5.93;;;4.90;99.90;;;;;;8260883;28;20026;-79
2022/10/03 22:18:59;;;;;;;29.23;6.57;;;4.70;99.90;;;;;;8252473;28;20681;-79
2022/10/03 22:23:09;;;;;;;49.58;7.10;;;4.60;99.90;;;;;;8260123;28;20045;-77
2022/10/03 22:27:45;;;;;;;30.58;7.13;;;4.70;99.90;;;;;;8263874;28;20014;-79
2022/10/03 22:32:07;;;;;;;19.88;6.85;;;4.60;99.90;;;;;;8256767;28;20035;-79
2022/10/03 22:36:10;;;;;;;16.05;7.82;;;4.50;99.90;;;;;;8269442;28;20018;-79
2022/10/03 22:40:11;;;;;;;28.92;8.18;;;4.50;99.90;;;;;;8268063;28;20022;-79